sensor_id;sensor_type;location;lat;lon;timestamp;temperature;humidity
60860;DHT22;46694;54.382;9.708;2022-10-17T00:01:46;11.50;99.90
60860;DHT22;46694;54.382;9.708;2022-10-17T00:04:25;11.50;99.90
60860;DHT22;46694;54.382;9.708;2022-10-17T00:07:05;11.60;99.90
60860;DHT22;46694;54.382;9.708;2022-10-17T00:09:45;11.60;99.90
60860;DHT22;46694;54.382;9.708;2022-10-17T00:12:25;11.60;99.90
60860;DHT22;46694;54.382;9.708;2022-10-17T00:15:05;11.60;99.90
60860;DHT22;46694;54.382;9.708;2022-10-17T00:17:45;11.60;99.90
60860;DHT22;46694;54.382;9.708;2022-10-17T00:20:25;11.60;99.90
60860;DHT22;46694;54.382;9.708;2022-10-17T00:23:05;11.60;99.90
60860;DHT22;46694;54.382;9.708;2022-10-17T00:25:44;11.60;99.90
60860;DHT22;46694;54.382;9.708;2022-10-17T00:28:24;11.60;99.90
60860;DHT22;46694;54.382;9.708;2022-10-17T00:31:05;11.60;99.90
60860;DHT22;46694;54.382;9.708;2022-10-17T00:33:46;11.60;99.90
60860;DHT22;46694;54.382;9.708;2022-10-17T00:36:25;11.60;99.90
60860;DHT22;46694;54.382;9.708;2022-10-17T00:39:05;11.60;99.90
60860;DHT22;46694;54.382;9.708;2022-10-17T00:41:45;11.60;99.90
60860;DHT22;46694;54.382;9.708;2022-10-17T00:47:14;11.60;99.90
60860;DHT22;46694;54.382;9.708;2022-10-17T00:49:56;11.60;99.90
60860;DHT22;46694;54.382;9.708;2022-10-17T00:52:37;11.60;99.90
60860;DHT22;46694;54.382;9.708;2022-10-17T00:55:23;11.60;99.90
60860;DHT22;46694;54.382;9.708;2022-10-17T00:58:07;11.60;99.90
60860;DHT22;46694;54.382;9.708;2022-10-17T01:00:47;11.60;99.90
60860;DHT22;46694;54.382;9.708;2022-10-17T01:03:26;11.50;99.90
60860;DHT22;46694;54.382;9.708;2022-10-17T01:06:06;11.60;99.90
60860;DHT22;46694;54.382;9.708;2022-10-17T01:08:45;11.60;99.90
60860;DHT22;46694;54.382;9.708;2022-10-17T01:11:58;11.60;99.90
60860;DHT22;46694;54.382;9.708;2022-10-17T01:22:07;11.60;99.90
60860;DHT22;46694;54.382;9.708;2022-10-17T01:33:13;11.60;99.90
60860;DHT22;46694;54.382;9.708;2022-10-17T01:36:04;11.60;99.90
60860;DHT22;46694;54.382;9.708;2022-10-17T01:38:51;11.70;99.90
60860;DHT22;46694;54.382;9.708;2022-10-17T01:41:43;11.70;99.90
60860;DHT22;46694;54.382;9.708;2022-10-17T01:47:30;11.70;99.90
60860;DHT22;46694;54.382;9.708;2022-10-17T01:50:15;11.70;99.90
60860;DHT22;46694;54.382;9.708;2022-10-17T01:53:11;11.70;99.90
60860;DHT22;46694;54.382;9.708;2022-10-17T01:55:55;11.70;99.90
60860;DHT22;46694;54.382;9.708;2022-10-17T01:58:42;11.70;99.90
60860;DHT22;46694;54.382;9.708;2022-10-17T02:01:27;11.80;99.90
60860;DHT22;46694;54.382;9.708;2022-10-17T02:04:09;11.80;99.90
60860;DHT22;46694;54.382;9.708;2022-10-17T02:06:48;11.80;99.90
60860;DHT22;46694;54.382;9.708;2022-10-17T02:09:28;11.80;99.90
60860;DHT22;46694;54.382;9.708;2022-10-17T02:18:38;11.80;99.90
60860;DHT22;46694;54.382;9.708;2022-10-17T02:27:39;11.70;99.90
60860;DHT22;46694;54.382;9.708;2022-10-17T02:30:46;11.70;99.90
60860;DHT22;46694;54.382;9.708;2022-10-17T02:36:34;11.70;99.90
60860;DHT22;46694;54.382;9.708;2022-10-17T02:39:15;11.70;99.90
60860;DHT22;46694;54.382;9.708;2022-10-17T02:41:57;11.70;99.90
60860;DHT22;46694;54.382;9.708;2022-10-17T02:44:42;11.70;99.90
60860;DHT22;46694;54.382;9.708;2022-10-17T02:50:32;11.70;99.90
60860;DHT22;46694;54.382;9.708;2022-10-17T02:53:36;11.80;99.90
60860;DHT22;46694;54.382;9.708;2022-10-17T02:56:20;11.80;99.90
60860;DHT22;46694;54.382;9.708;2022-10-17T02:59:01;11.80;99.90
60860;DHT22;46694;54.382;9.708;2022-10-17T03:01:42;11.80;99.90
60860;DHT22;46694;54.382;9.708;2022-10-17T03:04:22;11.90;99.90
60860;DHT22;46694;54.382;9.708;2022-10-17T03:07:01;11.90;99.90
60860;DHT22;46694;54.382;9.708;2022-10-17T03:09:41;11.90;99.90
60860;DHT22;46694;54.382;9.708;2022-10-17T03:12:21;11.90;99.90
60860;DHT22;46694;54.382;9.708;2022-10-17T03:15:01;11.90;99.90
60860;DHT22;46694;54.382;9.708;2022-10-17T03:17:40;11.90;99.90
60860;DHT22;46694;54.382;9.708;2022-10-17T03:20:19;11.90;99.90
60860;DHT22;46694;54.382;9.708;2022-10-17T03:22:59;11.90;99.90
60860;DHT22;46694;54.382;9.708;2022-10-17T03:25:39;11.90;99.90
60860;DHT22;46694;54.382;9.708;2022-10-17T03:28:18;11.90;99.90
60860;DHT22;46694;54.382;9.708;2022-10-17T03:30:58;11.90;99.90
60860;DHT22;46694;54.382;9.708;2022-10-17T03:33:37;11.90;99.90
60860;DHT22;46694;54.382;9.708;2022-10-17T03:36:18;11.90;99.90
60860;DHT22;46694;54.382;9.708;2022-10-17T03:38:58;12.00;99.90
60860;DHT22;46694;54.382;9.708;2022-10-17T03:41:37;12.00;99.90
60860;DHT22;46694;54.382;9.708;2022-10-17T03:44:17;12.00;99.90
60860;DHT22;46694;54.382;9.708;2022-10-17T03:46:57;12.00;99.90
60860;DHT22;46694;54.382;9.708;2022-10-17T03:49:36;12.00;99.90
60860;DHT22;46694;54.382;9.708;2022-10-17T03:52:16;12.00;99.90
60860;DHT22;46694;54.382;9.708;2022-10-17T03:54:55;12.10;99.90
60860;DHT22;46694;54.382;9.708;2022-10-17T03:57:35;12.10;99.90
60860;DHT22;46694;54.382;9.708;2022-10-17T04:00:15;12.20;99.90
60860;DHT22;46694;54.382;9.708;2022-10-17T04:02:54;12.20;99.90
60860;DHT22;46694;54.382;9.708;2022-10-17T04:05:34;12.20;99.90
60860;DHT22;46694;54.382;9.708;2022-10-17T04:08:13;12.20;99.90
60860;DHT22;46694;54.382;9.708;2022-10-17T04:10:57;12.20;99.90
60860;DHT22;46694;54.382;9.708;2022-10-17T04:13:41;12.20;99.90
60860;DHT22;46694;54.382;9.708;2022-10-17T04:16:23;12.20;99.90
60860;DHT22;46694;54.382;9.708;2022-10-17T04:19:03;12.30;99.90
60860;DHT22;46694;54.382;9.708;2022-10-17T04:21:43;12.30;99.90
60860;DHT22;46694;54.382;9.708;2022-10-17T04:24:23;12.30;99.90
60860;DHT22;46694;54.382;9.708;2022-10-17T04:27:03;12.20;99.90
60860;DHT22;46694;54.382;9.708;2022-10-17T04:29:43;12.30;99.90
60860;DHT22;46694;54.382;9.708;2022-10-17T04:32:23;12.30;99.90
60860;DHT22;46694;54.382;9.708;2022-10-17T04:35:04;12.30;99.90
60860;DHT22;46694;54.382;9.708;2022-10-17T04:37:44;12.30;99.90
60860;DHT22;46694;54.382;9.708;2022-10-17T04:40:23;12.30;99.90
60860;DHT22;46694;54.382;9.708;2022-10-17T04:43:03;12.30;99.90
60860;DHT22;46694;54.382;9.708;2022-10-17T04:45:42;12.40;99.90
60860;DHT22;46694;54.382;9.708;2022-10-17T04:48:21;12.40;99.90
60860;DHT22;46694;54.382;9.708;2022-10-17T04:51:07;12.40;99.90
60860;DHT22;46694;54.382;9.708;2022-10-17T04:53:49;12.40;99.90
60860;DHT22;46694;54.382;9.708;2022-10-17T04:56:29;12.50;99.90
60860;DHT22;46694;54.382;9.708;2022-10-17T04:59:08;12.50;99.90
60860;DHT22;46694;54.382;9.708;2022-10-17T05:01:48;12.60;99.90
60860;DHT22;46694;54.382;9.708;2022-10-17T05:04:28;12.60;99.90
60860;DHT22;46694;54.382;9.708;2022-10-17T05:07:07;12.70;99.90
60860;DHT22;46694;54.382;9.708;2022-10-17T05:09:47;12.70;99.90
60860;DHT22;46694;54.382;9.708;2022-10-17T05:12:26;12.70;99.90
60860;DHT22;46694;54.382;9.708;2022-10-17T05:15:07;12.70;99.90
60860;DHT22;46694;54.382;9.708;2022-10-17T05:17:46;12.70;99.90
60860;DHT22;46694;54.382;9.708;2022-10-17T05:20:26;12.70;99.90
60860;DHT22;46694;54.382;9.708;2022-10-17T05:23:05;12.70;99.90
60860;DHT22;46694;54.382;9.708;2022-10-17T05:25:45;12.70;99.90
60860;DHT22;46694;54.382;9.708;2022-10-17T05:28:25;12.70;99.90
60860;DHT22;46694;54.382;9.708;2022-10-17T05:31:06;12.70;99.90
60860;DHT22;46694;54.382;9.708;2022-10-17T05:33:46;12.70;99.90
60860;DHT22;46694;54.382;9.708;2022-10-17T05:36:26;12.70;99.90
60860;DHT22;46694;54.382;9.708;2022-10-17T05:39:05;12.70;99.90
60860;DHT22;46694;54.382;9.708;2022-10-17T05:41:45;12.70;99.90
60860;DHT22;46694;54.382;9.708;2022-10-17T05:44:25;12.70;99.90
60860;DHT22;46694;54.382;9.708;2022-10-17T05:47:05;12.70;99.90
60860;DHT22;46694;54.382;9.708;2022-10-17T05:49:45;12.70;99.90
60860;DHT22;46694;54.382;9.708;2022-10-17T05:52:25;12.70;99.90
60860;DHT22;46694;54.382;9.708;2022-10-17T05:55:05;12.70;99.90
60860;DHT22;46694;54.382;9.708;2022-10-17T05:57:46;12.70;99.90
60860;DHT22;46694;54.382;9.708;2022-10-17T06:00:25;12.70;99.90
60860;DHT22;46694;54.382;9.708;2022-10-17T06:03:04;12.70;99.90
60860;DHT22;46694;54.382;9.708;2022-10-17T06:05:44;12.70;99.90
60860;DHT22;46694;54.382;9.708;2022-10-17T06:08:24;12.70;99.90
60860;DHT22;46694;54.382;9.708;2022-10-17T06:11:04;12.70;99.90
60860;DHT22;46694;54.382;9.708;2022-10-17T06:13:43;12.80;99.90
60860;DHT22;46694;54.382;9.708;2022-10-17T06:16:23;12.80;99.90
60860;DHT22;46694;54.382;9.708;2022-10-17T06:19:03;12.80;99.90
60860;DHT22;46694;54.382;9.708;2022-10-17T06:21:42;12.80;99.90
60860;DHT22;46694;54.382;9.708;2022-10-17T06:24:22;12.80;99.90
60860;DHT22;46694;54.382;9.708;2022-10-17T06:27:01;12.80;99.90
60860;DHT22;46694;54.382;9.708;2022-10-17T06:29:41;12.80;99.90
60860;DHT22;46694;54.382;9.708;2022-10-17T06:32:20;12.90;99.90
60860;DHT22;46694;54.382;9.708;2022-10-17T06:35:00;12.90;99.90
60860;DHT22;46694;54.382;9.708;2022-10-17T06:37:40;12.90;99.90
60860;DHT22;46694;54.382;9.708;2022-10-17T06:40:19;13.00;99.90
60860;DHT22;46694;54.382;9.708;2022-10-17T06:42:59;13.00;99.90
60860;DHT22;46694;54.382;9.708;2022-10-17T06:45:39;13.00;99.90
60860;DHT22;46694;54.382;9.708;2022-10-17T06:48:18;13.10;99.90
60860;DHT22;46694;54.382;9.708;2022-10-17T06:50:59;13.10;99.90
60860;DHT22;46694;54.382;9.708;2022-10-17T06:53:40;13.10;99.90
60860;DHT22;46694;54.382;9.708;2022-10-17T06:56:19;13.10;99.90
60860;DHT22;46694;54.382;9.708;2022-10-17T06:58:59;13.20;99.90
60860;DHT22;46694;54.382;9.708;2022-10-17T07:01:38;13.30;99.90
60860;DHT22;46694;54.382;9.708;2022-10-17T07:04:18;13.40;99.90
60860;DHT22;46694;54.382;9.708;2022-10-17T07:06:58;13.50;99.90
60860;DHT22;46694;54.382;9.708;2022-10-17T07:09:40;13.60;99.90
60860;DHT22;46694;54.382;9.708;2022-10-17T07:12:20;13.70;99.90
60860;DHT22;46694;54.382;9.708;2022-10-17T07:15:01;13.70;99.90
60860;DHT22;46694;54.382;9.708;2022-10-17T07:17:47;13.80;99.90
60860;DHT22;46694;54.382;9.708;2022-10-17T07:20:28;13.80;99.90
60860;DHT22;46694;54.382;9.708;2022-10-17T07:23:08;13.90;99.90
60860;DHT22;46694;54.382;9.708;2022-10-17T07:25:47;14.00;99.90
60860;DHT22;46694;54.382;9.708;2022-10-17T07:28:27;14.10;99.90
60860;DHT22;46694;54.382;9.708;2022-10-17T07:31:09;14.20;99.90
60860;DHT22;46694;54.382;9.708;2022-10-17T07:33:58;14.30;99.90
60860;DHT22;46694;54.382;9.708;2022-10-17T07:36:38;14.40;99.90
60860;DHT22;46694;54.382;9.708;2022-10-17T07:39:18;14.50;99.90
60860;DHT22;46694;54.382;9.708;2022-10-17T07:41:58;14.60;99.90
60860;DHT22;46694;54.382;9.708;2022-10-17T07:44:37;14.60;99.90
60860;DHT22;46694;54.382;9.708;2022-10-17T07:47:17;14.60;99.90
60860;DHT22;46694;54.382;9.708;2022-10-17T07:49:56;14.50;99.90
60860;DHT22;46694;54.382;9.708;2022-10-17T07:52:36;14.60;99.90
60860;DHT22;46694;54.382;9.708;2022-10-17T07:55:16;14.70;99.90
60860;DHT22;46694;54.382;9.708;2022-10-17T07:57:56;14.70;99.90
60860;DHT22;46694;54.382;9.708;2022-10-17T08:00:36;14.70;99.90
60860;DHT22;46694;54.382;9.708;2022-10-17T08:03:17;14.70;99.90
60860;DHT22;46694;54.382;9.708;2022-10-17T08:05:58;14.80;99.90
60860;DHT22;46694;54.382;9.708;2022-10-17T08:08:39;14.80;99.90
60860;DHT22;46694;54.382;9.708;2022-10-17T08:11:19;14.80;99.90
60860;DHT22;46694;54.382;9.708;2022-10-17T08:14:00;14.80;99.90
60860;DHT22;46694;54.382;9.708;2022-10-17T08:16:40;14.80;99.90
60860;DHT22;46694;54.382;9.708;2022-10-17T08:19:19;14.80;99.90
60860;DHT22;46694;54.382;9.708;2022-10-17T08:21:59;14.90;99.90
60860;DHT22;46694;54.382;9.708;2022-10-17T08:24:40;14.90;99.90
60860;DHT22;46694;54.382;9.708;2022-10-17T08:27:20;14.80;99.90
60860;DHT22;46694;54.382;9.708;2022-10-17T08:30:03;14.80;99.90
60860;DHT22;46694;54.382;9.708;2022-10-17T08:32:43;14.90;99.90
60860;DHT22;46694;54.382;9.708;2022-10-17T08:35:22;14.90;99.90
60860;DHT22;46694;54.382;9.708;2022-10-17T08:38:02;14.90;99.90
60860;DHT22;46694;54.382;9.708;2022-10-17T08:40:42;14.90;99.90
60860;DHT22;46694;54.382;9.708;2022-10-17T08:44:02;15.00;99.90
60860;DHT22;46694;54.382;9.708;2022-10-17T08:46:46;15.00;99.90
60860;DHT22;46694;54.382;9.708;2022-10-17T08:52:41;15.10;99.90
60860;DHT22;46694;54.382;9.708;2022-10-17T08:55:49;15.10;99.90
60860;DHT22;46694;54.382;9.708;2022-10-17T08:58:32;15.20;99.90
60860;DHT22;46694;54.382;9.708;2022-10-17T09:01:26;15.20;99.90
60860;DHT22;46694;54.382;9.708;2022-10-17T09:14:10;15.40;99.90
60860;DHT22;46694;54.382;9.708;2022-10-17T09:19:42;15.50;99.90
60860;DHT22;46694;54.382;9.708;2022-10-17T09:22:32;15.60;99.90
60860;DHT22;46694;54.382;9.708;2022-10-17T09:25:18;15.80;99.90
60860;DHT22;46694;54.382;9.708;2022-10-17T09:28:03;16.00;99.90
60860;DHT22;46694;54.382;9.708;2022-10-17T09:33:45;16.80;99.90
60860;DHT22;46694;54.382;9.708;2022-10-17T09:36:33;17.00;99.90
60860;DHT22;46694;54.382;9.708;2022-10-17T09:39:18;17.40;99.90
60860;DHT22;46694;54.382;9.708;2022-10-17T09:42:01;17.60;99.90
60860;DHT22;46694;54.382;9.708;2022-10-17T09:44:51;17.80;99.90
60860;DHT22;46694;54.382;9.708;2022-10-17T09:47:33;17.80;99.90
60860;DHT22;46694;54.382;9.708;2022-10-17T09:50:27;17.90;99.90
60860;DHT22;46694;54.382;9.708;2022-10-17T09:53:19;18.10;99.90
60860;DHT22;46694;54.382;9.708;2022-10-17T09:56:09;18.30;99.90
60860;DHT22;46694;54.382;9.708;2022-10-17T09:58:57;18.30;99.90
60860;DHT22;46694;54.382;9.708;2022-10-17T10:01:37;18.30;99.90
60860;DHT22;46694;54.382;9.708;2022-10-17T10:04:16;18.50;99.90
60860;DHT22;46694;54.382;9.708;2022-10-17T10:07:04;18.70;99.90
60860;DHT22;46694;54.382;9.708;2022-10-17T10:09:46;19.00;99.90
60860;DHT22;46694;54.382;9.708;2022-10-17T10:12:36;19.30;99.90
60860;DHT22;46694;54.382;9.708;2022-10-17T10:15:31;19.60;99.90
60860;DHT22;46694;54.382;9.708;2022-10-17T10:18:29;19.60;99.90
60860;DHT22;46694;54.382;9.708;2022-10-17T10:21:20;19.80;99.90
60860;DHT22;46694;54.382;9.708;2022-10-17T10:24:13;19.90;99.90
60860;DHT22;46694;54.382;9.708;2022-10-17T10:26:54;20.00;99.90
60860;DHT22;46694;54.382;9.708;2022-10-17T10:29:40;20.10;99.90
60860;DHT22;46694;54.382;9.708;2022-10-17T10:32:28;20.20;99.90
60860;DHT22;46694;54.382;9.708;2022-10-17T10:35:24;20.20;99.90
60860;DHT22;46694;54.382;9.708;2022-10-17T10:38:15;20.20;99.90
60860;DHT22;46694;54.382;9.708;2022-10-17T10:41:02;20.20;99.90
60860;DHT22;46694;54.382;9.708;2022-10-17T10:43:46;20.20;99.90
60860;DHT22;46694;54.382;9.708;2022-10-17T10:46:27;20.20;99.90
60860;DHT22;46694;54.382;9.708;2022-10-17T10:49:30;20.30;99.90
60860;DHT22;46694;54.382;9.708;2022-10-17T10:52:31;20.50;99.90
60860;DHT22;46694;54.382;9.708;2022-10-17T10:55:35;20.60;99.90
60860;DHT22;46694;54.382;9.708;2022-10-17T11:07:44;20.80;99.90
60860;DHT22;46694;54.382;9.708;2022-10-17T11:10:35;20.80;99.90
60860;DHT22;46694;54.382;9.708;2022-10-17T11:13:25;20.70;99.90
60860;DHT22;46694;54.382;9.708;2022-10-17T11:22:53;20.40;99.90
60860;DHT22;46694;54.382;9.708;2022-10-17T11:25:40;20.30;99.90
60860;DHT22;46694;54.382;9.708;2022-10-17T11:28:21;20.20;99.90
60860;DHT22;46694;54.382;9.708;2022-10-17T11:31:12;20.30;99.90
60860;DHT22;46694;54.382;9.708;2022-10-17T11:34:14;20.30;99.90
60860;DHT22;46694;54.382;9.708;2022-10-17T11:37:08;20.30;99.90
60860;DHT22;46694;54.382;9.708;2022-10-17T11:43:02;20.20;99.90
60860;DHT22;46694;54.382;9.708;2022-10-17T11:45:49;20.10;99.90
60860;DHT22;46694;54.382;9.708;2022-10-17T11:55:24;19.80;99.90
60860;DHT22;46694;54.382;9.708;2022-10-17T11:58:16;19.80;99.90
60860;DHT22;46694;54.382;9.708;2022-10-17T12:21:56;19.60;99.90
60860;DHT22;46694;54.382;9.708;2022-10-17T12:24:42;19.70;99.90
60860;DHT22;46694;54.382;9.708;2022-10-17T12:27:39;19.80;99.90
60860;DHT22;46694;54.382;9.708;2022-10-17T12:30:25;19.80;99.90
60860;DHT22;46694;54.382;9.708;2022-10-17T12:33:13;19.70;99.90
60860;DHT22;46694;54.382;9.708;2022-10-17T12:49:48;19.20;99.90
60860;DHT22;46694;54.382;9.708;2022-10-17T12:55:18;19.10;99.90
60860;DHT22;46694;54.382;9.708;2022-10-17T12:58:09;19.10;99.90
60860;DHT22;46694;54.382;9.708;2022-10-17T13:00:51;19.10;99.90
60860;DHT22;46694;54.382;9.708;2022-10-17T13:03:39;19.00;99.90
60860;DHT22;46694;54.382;9.708;2022-10-17T13:06:26;19.00;99.90
60860;DHT22;46694;54.382;9.708;2022-10-17T13:09:35;19.00;99.90
60860;DHT22;46694;54.382;9.708;2022-10-17T13:12:19;19.10;99.90
60860;DHT22;46694;54.382;9.708;2022-10-17T13:15:03;19.00;99.90
60860;DHT22;46694;54.382;9.708;2022-10-17T13:17:54;19.00;99.90
60860;DHT22;46694;54.382;9.708;2022-10-17T13:20:35;18.90;99.90
60860;DHT22;46694;54.382;9.708;2022-10-17T13:23:22;18.80;99.90
60860;DHT22;46694;54.382;9.708;2022-10-17T13:26:15;18.80;99.90
60860;DHT22;46694;54.382;9.708;2022-10-17T13:31:57;18.70;99.90
60860;DHT22;46694;54.382;9.708;2022-10-17T13:34:39;18.60;99.90
60860;DHT22;46694;54.382;9.708;2022-10-17T13:37:19;18.60;99.90
60860;DHT22;46694;54.382;9.708;2022-10-17T13:39:59;18.60;99.90
60860;DHT22;46694;54.382;9.708;2022-10-17T13:42:39;18.60;99.90
60860;DHT22;46694;54.382;9.708;2022-10-17T13:45:43;18.60;99.90
60860;DHT22;46694;54.382;9.708;2022-10-17T13:48:26;18.60;99.90
60860;DHT22;46694;54.382;9.708;2022-10-17T13:51:06;18.60;99.90
60860;DHT22;46694;54.382;9.708;2022-10-17T13:53:46;18.60;99.90
60860;DHT22;46694;54.382;9.708;2022-10-17T13:56:27;18.70;99.90
60860;DHT22;46694;54.382;9.708;2022-10-17T13:59:52;18.70;99.90
60860;DHT22;46694;54.382;9.708;2022-10-17T14:02:30;18.80;99.90
60860;DHT22;46694;54.382;9.708;2022-10-17T14:05:16;18.80;99.90
60860;DHT22;46694;54.382;9.708;2022-10-17T14:08:03;18.80;99.90
60860;DHT22;46694;54.382;9.708;2022-10-17T14:10:43;18.70;99.90
60860;DHT22;46694;54.382;9.708;2022-10-17T14:13:23;18.70;99.90
60860;DHT22;46694;54.382;9.708;2022-10-17T14:16:04;18.60;99.90
60860;DHT22;46694;54.382;9.708;2022-10-17T14:18:47;18.60;99.90
60860;DHT22;46694;54.382;9.708;2022-10-17T14:21:28;18.50;99.90
60860;DHT22;46694;54.382;9.708;2022-10-17T14:26:59;18.40;99.90
60860;DHT22;46694;54.382;9.708;2022-10-17T14:29:52;18.40;99.90
60860;DHT22;46694;54.382;9.708;2022-10-17T14:32:34;18.30;99.90
60860;DHT22;46694;54.382;9.708;2022-10-17T14:35:15;18.30;99.90
60860;DHT22;46694;54.382;9.708;2022-10-17T14:38:06;18.20;99.90
60860;DHT22;46694;54.382;9.708;2022-10-17T14:43:55;18.00;99.90
60860;DHT22;46694;54.382;9.708;2022-10-17T14:46:36;18.00;99.90
60860;DHT22;46694;54.382;9.708;2022-10-17T14:49:22;17.90;99.90
60860;DHT22;46694;54.382;9.708;2022-10-17T14:54:56;17.70;99.90
60860;DHT22;46694;54.382;9.708;2022-10-17T14:57:42;17.70;99.90
60860;DHT22;46694;54.382;9.708;2022-10-17T15:00:23;17.60;99.90
60860;DHT22;46694;54.382;9.708;2022-10-17T15:03:03;17.60;99.90
60860;DHT22;46694;54.382;9.708;2022-10-17T15:05:42;17.50;99.90
60860;DHT22;46694;54.382;9.708;2022-10-17T15:08:23;17.40;99.90
60860;DHT22;46694;54.382;9.708;2022-10-17T15:11:03;17.40;99.90
60860;DHT22;46694;54.382;9.708;2022-10-17T15:13:42;17.30;99.90
60860;DHT22;46694;54.382;9.708;2022-10-17T15:16:23;17.30;99.90
60860;DHT22;46694;54.382;9.708;2022-10-17T15:19:03;17.30;99.90
60860;DHT22;46694;54.382;9.708;2022-10-17T15:21:43;17.30;99.90
60860;DHT22;46694;54.382;9.708;2022-10-17T15:24:23;17.20;99.90
60860;DHT22;46694;54.382;9.708;2022-10-17T15:27:03;17.20;99.90
60860;DHT22;46694;54.382;9.708;2022-10-17T15:29:45;17.10;99.90
60860;DHT22;46694;54.382;9.708;2022-10-17T15:32:25;17.00;99.90
60860;DHT22;46694;54.382;9.708;2022-10-17T15:35:05;17.00;99.90
60860;DHT22;46694;54.382;9.708;2022-10-17T15:37:45;16.90;99.90
60860;DHT22;46694;54.382;9.708;2022-10-17T15:40:27;16.90;99.90
60860;DHT22;46694;54.382;9.708;2022-10-17T15:43:08;16.90;99.90
60860;DHT22;46694;54.382;9.708;2022-10-17T15:45:47;16.90;99.90
60860;DHT22;46694;54.382;9.708;2022-10-17T15:48:29;16.90;99.90
60860;DHT22;46694;54.382;9.708;2022-10-17T15:51:09;16.90;99.90
60860;DHT22;46694;54.382;9.708;2022-10-17T15:53:48;16.90;99.90
60860;DHT22;46694;54.382;9.708;2022-10-17T15:56:39;16.90;99.90
60860;DHT22;46694;54.382;9.708;2022-10-17T15:59:26;16.90;99.90
60860;DHT22;46694;54.382;9.708;2022-10-17T16:02:12;16.80;99.90
60860;DHT22;46694;54.382;9.708;2022-10-17T16:04:52;16.80;99.90
60860;DHT22;46694;54.382;9.708;2022-10-17T16:07:32;16.80;99.90
60860;DHT22;46694;54.382;9.708;2022-10-17T16:10:12;16.80;99.90
60860;DHT22;46694;54.382;9.708;2022-10-17T16:12:52;16.70;99.90
60860;DHT22;46694;54.382;9.708;2022-10-17T16:15:32;16.70;99.90
60860;DHT22;46694;54.382;9.708;2022-10-17T16:18:12;16.70;99.90
60860;DHT22;46694;54.382;9.708;2022-10-17T16:20:51;16.70;99.90
60860;DHT22;46694;54.382;9.708;2022-10-17T16:23:31;16.70;99.90
60860;DHT22;46694;54.382;9.708;2022-10-17T16:26:11;16.60;99.90
60860;DHT22;46694;54.382;9.708;2022-10-17T16:28:54;16.60;99.90
60860;DHT22;46694;54.382;9.708;2022-10-17T16:31:39;16.70;99.90
60860;DHT22;46694;54.382;9.708;2022-10-17T16:34:20;16.70;99.90
60860;DHT22;46694;54.382;9.708;2022-10-17T16:37:00;16.70;99.90
60860;DHT22;46694;54.382;9.708;2022-10-17T16:39:39;16.70;99.90
60860;DHT22;46694;54.382;9.708;2022-10-17T16:42:20;16.70;99.90
60860;DHT22;46694;54.382;9.708;2022-10-17T16:44:59;16.60;99.90
60860;DHT22;46694;54.382;9.708;2022-10-17T16:47:39;16.60;99.90
60860;DHT22;46694;54.382;9.708;2022-10-17T16:50:19;16.60;99.90
60860;DHT22;46694;54.382;9.708;2022-10-17T16:52:58;16.60;99.90
60860;DHT22;46694;54.382;9.708;2022-10-17T16:55:38;16.60;99.90
60860;DHT22;46694;54.382;9.708;2022-10-17T16:58:17;16.60;99.90
60860;DHT22;46694;54.382;9.708;2022-10-17T17:01:02;16.50;99.90
60860;DHT22;46694;54.382;9.708;2022-10-17T17:03:44;16.50;99.90
60860;DHT22;46694;54.382;9.708;2022-10-17T17:06:26;16.50;99.90
60860;DHT22;46694;54.382;9.708;2022-10-17T17:09:06;16.50;99.90
60860;DHT22;46694;54.382;9.708;2022-10-17T17:11:47;16.50;99.90
60860;DHT22;46694;54.382;9.708;2022-10-17T17:14:27;16.50;99.90
60860;DHT22;46694;54.382;9.708;2022-10-17T17:17:06;16.50;99.90
60860;DHT22;46694;54.382;9.708;2022-10-17T17:19:46;16.50;99.90
60860;DHT22;46694;54.382;9.708;2022-10-17T17:22:25;16.50;99.90
60860;DHT22;46694;54.382;9.708;2022-10-17T17:25:05;16.50;99.90
60860;DHT22;46694;54.382;9.708;2022-10-17T17:27:45;16.50;99.90
60860;DHT22;46694;54.382;9.708;2022-10-17T17:30:27;16.50;99.90
60860;DHT22;46694;54.382;9.708;2022-10-17T17:33:07;16.50;99.90
60860;DHT22;46694;54.382;9.708;2022-10-17T17:35:52;16.40;99.90
60860;DHT22;46694;54.382;9.708;2022-10-17T17:38:35;16.40;99.90
60860;DHT22;46694;54.382;9.708;2022-10-17T17:41:16;16.40;99.90
60860;DHT22;46694;54.382;9.708;2022-10-17T17:43:57;16.40;99.90
60860;DHT22;46694;54.382;9.708;2022-10-17T17:46:36;16.40;99.90
60860;DHT22;46694;54.382;9.708;2022-10-17T17:49:15;16.40;99.90
60860;DHT22;46694;54.382;9.708;2022-10-17T17:51:55;16.40;99.90
60860;DHT22;46694;54.382;9.708;2022-10-17T17:54:35;16.40;99.90
60860;DHT22;46694;54.382;9.708;2022-10-17T17:57:14;16.30;99.90
60860;DHT22;46694;54.382;9.708;2022-10-17T17:59:54;16.30;99.90
60860;DHT22;46694;54.382;9.708;2022-10-17T18:02:33;16.30;99.90
60860;DHT22;46694;54.382;9.708;2022-10-17T18:05:14;16.30;99.90
60860;DHT22;46694;54.382;9.708;2022-10-17T18:07:53;16.30;99.90
60860;DHT22;46694;54.382;9.708;2022-10-17T18:10:33;16.30;99.90
60860;DHT22;46694;54.382;9.708;2022-10-17T18:13:12;16.30;99.90
60860;DHT22;46694;54.382;9.708;2022-10-17T18:15:56;16.20;99.90
60860;DHT22;46694;54.382;9.708;2022-10-17T18:18:38;16.20;99.90
60860;DHT22;46694;54.382;9.708;2022-10-17T18:21:19;16.20;99.90
60860;DHT22;46694;54.382;9.708;2022-10-17T18:23:59;16.20;99.90
60860;DHT22;46694;54.382;9.708;2022-10-17T18:26:38;16.10;99.90
60860;DHT22;46694;54.382;9.708;2022-10-17T18:29:17;16.10;99.90
60860;DHT22;46694;54.382;9.708;2022-10-17T18:31:58;16.10;99.90
60860;DHT22;46694;54.382;9.708;2022-10-17T18:34:38;16.10;99.90
60860;DHT22;46694;54.382;9.708;2022-10-17T18:37:17;16.00;99.90
60860;DHT22;46694;54.382;9.708;2022-10-17T18:39:57;16.00;99.90
60860;DHT22;46694;54.382;9.708;2022-10-17T18:42:36;16.00;99.90
60860;DHT22;46694;54.382;9.708;2022-10-17T18:45:15;15.90;99.90
60860;DHT22;46694;54.382;9.708;2022-10-17T18:47:55;15.90;99.90
60860;DHT22;46694;54.382;9.708;2022-10-17T18:50:37;15.90;99.90
60860;DHT22;46694;54.382;9.708;2022-10-17T18:53:20;15.80;99.90
60860;DHT22;46694;54.382;9.708;2022-10-17T18:55:59;15.80;99.90
60860;DHT22;46694;54.382;9.708;2022-10-17T18:58:41;15.80;99.90
60860;DHT22;46694;54.382;9.708;2022-10-17T19:01:25;15.80;99.90
60860;DHT22;46694;54.382;9.708;2022-10-17T19:04:05;15.70;99.90
60860;DHT22;46694;54.382;9.708;2022-10-17T19:06:45;15.70;99.90
60860;DHT22;46694;54.382;9.708;2022-10-17T19:09:24;15.70;99.90
60860;DHT22;46694;54.382;9.708;2022-10-17T19:12:04;15.60;99.90
60860;DHT22;46694;54.382;9.708;2022-10-17T19:14:43;15.60;99.90
60860;DHT22;46694;54.382;9.708;2022-10-17T19:17:23;15.60;99.90
60860;DHT22;46694;54.382;9.708;2022-10-17T19:20:03;15.60;99.90
60860;DHT22;46694;54.382;9.708;2022-10-17T19:22:43;15.60;99.90